Time;durP1;ratioP1;P1;durP2;ratioP2;P2;SDS_P1;SDS_P2;PMS_P1;PMS_P2;Temp;Humidity;BMP_temperature;BMP_pressure;BME280_temperature;BME280_humidity;BME280_pressure;Samples;Min_cycle;Max_cycle;Signal;HPM_P1;HPM_P2
2022/04/04 00:00:43;;;;;;;5.00;3.53;;;6.10;99.90;;;;;;5028386;28;20546;-56
2022/04/04 00:03:10;;;;;;;3.75;3.38;;;6.10;99.90;;;;;;5017467;28;20049;-58
2022/04/04 00:05:37;;;;;;;4.50;4.03;;;6.20;99.90;;;;;;5018414;28;20053;-57
2022/04/04 00:08:05;;;;;;;5.43;3.72;;;6.20;99.90;;;;;;5016027;28;20603;-57
2022/04/04 00:10:32;;;;;;;4.68;3.83;;;6.10;99.90;;;;;;5016522;28;20448;-58
2022/04/04 00:12:59;;;;;;;5.40;4.13;;;6.20;99.90;;;;;;5017056;28;20405;-57
2022/04/04 00:15:27;;;;;;;5.00;3.92;;;6.20;99.90;;;;;;5019653;28;20142;-59
2022/04/04 00:17:57;;;;;;;4.20;3.75;;;6.20;99.90;;;;;;5023045;28;20135;-58
2022/04/04 00:20:25;;;;;;;10.95;4.95;;;6.20;99.90;;;;;;5020779;28;20063;-58
2022/04/04 00:22:52;;;;;;;4.78;3.65;;;6.20;99.90;;;;;;5022491;28;20077;-58
2022/04/04 00:25:19;;;;;;;5.72;3.88;;;6.20;99.90;;;;;;5020825;28;20566;-59
2022/04/04 00:27:45;;;;;;;4.65;3.40;;;6.10;99.90;;;;;;5022927;28;20144;-56
2022/04/04 00:30:12;;;;;;;5.22;3.95;;;6.10;99.90;;;;;;5020228;28;20041;-58
2022/04/04 00:32:39;;;;;;;3.63;2.83;;;6.20;99.90;;;;;;5036955;28;20144;-58
2022/04/04 00:35:06;;;;;;;4.50;4.10;;;6.10;99.90;;;;;;5022012;28;20076;-58
2022/04/04 00:37:39;;;;;;;5.50;3.60;;;6.10;99.90;;;;;;5020888;28;20448;-58
2022/04/04 00:40:06;;;;;;;7.00;3.28;;;6.10;99.90;;;;;;5023309;28;20056;-59
2022/04/04 00:42:33;;;;;;;5.75;3.42;;;6.10;99.90;;;;;;5034517;28;20474;-58
2022/04/04 00:45:00;;;;;;;5.07;3.35;;;6.10;99.90;;;;;;5020993;28;20115;-58
2022/04/04 00:47:27;;;;;;;4.85;3.50;;;6.10;99.90;;;;;;5020159;28;20072;-58
2022/04/04 00:49:54;;;;;;;5.65;3.75;;;6.10;99.90;;;;;;5018522;28;20160;-58
2022/04/04 00:52:20;;;;;;;5.45;3.45;;;6.10;99.90;;;;;;5014496;28;20144;-58
2022/04/04 00:54:47;;;;;;;4.78;3.80;;;6.10;99.90;;;;;;5024233;28;20091;-58
2022/04/04 00:57:14;;;;;;;3.80;3.05;;;6.10;99.90;;;;;;5021391;28;20447;-57
2022/04/04 00:59:41;;;;;;;5.95;3.40;;;6.10;99.90;;;;;;5030925;28;20436;-58
2022/04/04 01:02:07;;;;;;;3.78;3.35;;;6.10;99.90;;;;;;5019753;28;20041;-58
2022/04/04 01:04:34;;;;;;;4.60;3.80;;;6.10;99.90;;;;;;5017786;28;20118;-57
2022/04/04 01:07:01;;;;;;;4.10;3.65;;;6.10;99.90;;;;;;5021767;28;20747;-58
2022/04/04 01:09:28;;;;;;;4.80;3.65;;;6.10;99.90;;;;;;5019946;28;20057;-58
2022/04/04 01:12:11;;;;;;;6.10;3.47;;;6.10;99.90;;;;;;5013442;28;20129;-58
2022/04/04 01:14:45;;;;;;;5.07;3.67;;;6.10;99.90;;;;;;5016556;28;20164;-56
2022/04/04 01:17:12;;;;;;;3.40;3.05;;;6.10;99.90;;;;;;5019586;28;20049;-58
2022/04/04 01:19:38;;;;;;;4.30;3.55;;;6.20;99.90;;;;;;5015919;28;20112;-58
2022/04/04 01:22:07;;;;;;;3.78;3.20;;;6.20;99.90;;;;;;5023076;28;20125;-58
2022/04/04 01:24:34;;;;;;;4.38;3.78;;;6.20;99.90;;;;;;5019264;28;20165;-59
2022/04/04 01:27:01;;;;;;;4.07;3.10;;;6.20;99.90;;;;;;5021649;28;20073;-58
2022/04/04 01:29:28;;;;;;;4.22;3.00;;;6.20;99.90;;;;;;5020293;28;20496;-59
2022/04/04 01:31:54;;;;;;;3.78;3.05;;;6.30;99.90;;;;;;5017248;28;20152;-57
2022/04/04 01:34:22;;;;;;;4.07;3.15;;;6.30;99.90;;;;;;5017428;28;20056;-57
2022/04/04 01:36:49;;;;;;;7.30;3.53;;;6.30;99.90;;;;;;5021436;28;20128;-58
2022/04/04 01:39:15;;;;;;;3.63;3.08;;;6.30;99.90;;;;;;5021622;28;20096;-58
2022/04/04 01:41:42;;;;;;;4.03;3.10;;;6.30;99.90;;;;;;5030350;28;20128;-58
2022/04/04 01:44:09;;;;;;;4.70;2.67;;;6.30;99.90;;;;;;5021550;28;20418;-58
2022/04/04 01:46:36;;;;;;;6.57;3.08;;;6.30;99.90;;;;;;5020628;28;20444;-58
2022/04/04 01:49:04;;;;;;;3.70;3.05;;;6.30;99.90;;;;;;5019877;28;20049;-57
2022/04/04 01:51:33;;;;;;;4.97;3.88;;;6.30;99.90;;;;;;5022827;28;20441;-57
2022/04/04 01:54:00;;;;;;;4.78;3.10;;;6.30;99.90;;;;;;5021594;28;20128;-58
2022/04/04 01:56:28;;;;;;;3.70;2.58;;;6.30;99.90;;;;;;5023023;28;20081;-58
2022/04/04 01:58:54;;;;;;;5.35;3.25;;;6.30;99.90;;;;;;5020300;28;20440;-58
2022/04/04 02:01:23;;;;;;;5.22;3.10;;;6.30;99.90;;;;;;5022800;28;20906;-58
2022/04/04 02:03:51;;;;;;;3.85;3.17;;;6.30;99.90;;;;;;5016422;28;20067;-56
2022/04/04 02:06:18;;;;;;;3.72;2.88;;;6.30;99.90;;;;;;5004189;28;20069;-58
2022/04/04 02:08:45;;;;;;;3.42;3.13;;;6.30;99.90;;;;;;5019846;28;20128;-58
2022/04/04 02:11:13;;;;;;;4.53;4.05;;;6.30;99.90;;;;;;5019189;28;20081;-58
2022/04/04 02:13:43;;;;;;;5.35;3.45;;;6.30;99.90;;;;;;5016616;28;20080;-58
2022/04/04 02:16:10;;;;;;;3.22;2.92;;;6.30;99.90;;;;;;5022884;28;20152;-58
2022/04/04 02:18:37;;;;;;;3.95;2.85;;;6.40;99.90;;;;;;5021435;28;20504;-57
2022/04/04 02:21:05;;;;;;;3.47;3.17;;;6.40;99.90;;;;;;5022415;28;20513;-58
2022/04/04 02:23:32;;;;;;;3.83;2.80;;;6.40;99.90;;;;;;5017752;28;20585;-58
2022/04/04 02:25:59;;;;;;;5.65;3.10;;;6.40;99.90;;;;;;5018736;28;20050;-57
2022/04/04 02:28:26;;;;;;;3.30;2.70;;;6.40;99.90;;;;;;5041561;28;20128;-57
2022/04/04 02:30:53;;;;;;;4.25;3.10;;;6.40;99.90;;;;;;5019840;28;20145;-57
2022/04/04 02:33:20;;;;;;;3.22;2.20;;;6.40;99.90;;;;;;5011353;28;20045;-59
2022/04/04 02:35:50;;;;;;;4.35;3.20;;;6.40;99.90;;;;;;5021365;28;20046;-58
2022/04/04 02:38:18;;;;;;;4.32;3.38;;;6.40;99.90;;;;;;5019480;28;20081;-57
2022/04/04 02:40:44;;;;;;;5.72;3.22;;;6.40;99.90;;;;;;5020420;28;20103;-56
2022/04/04 02:43:11;;;;;;;4.07;2.83;;;6.40;99.90;;;;;;5021723;28;20604;-58
2022/04/04 02:45:38;;;;;;;4.40;3.47;;;6.40;99.90;;;;;;5015425;28;20054;-58
2022/04/04 02:48:05;;;;;;;4.90;3.20;;;6.40;99.90;;;;;;5024300;28;20137;-57
2022/04/04 02:50:34;;;;;;;4.65;3.33;;;6.40;99.90;;;;;;5031404;28;20133;-58
2022/04/04 02:53:01;;;;;;;3.38;2.88;;;6.50;99.90;;;;;;5014792;28;20111;-56
2022/04/04 02:58:14;;;;;;;4.60;3.17;;;6.50;99.90;;;;;;5019649;28;20076;-58
2022/04/04 03:00:41;;;;;;;4.80;2.78;;;6.50;99.90;;;;;;5017268;28;20187;-58
2022/04/04 03:03:08;;;;;;;5.22;2.38;;;6.60;99.90;;;;;;5018253;28;20104;-58
2022/04/04 03:05:36;;;;;;;4.15;2.67;;;6.60;99.90;;;;;;5022157;28;20053;-58
2022/04/04 03:08:04;;;;;;;3.25;2.40;;;6.60;99.90;;;;;;5017031;28;20081;-58
2022/04/04 03:10:32;;;;;;;3.33;2.80;;;6.60;99.90;;;;;;5018496;28;20057;-57
2022/04/04 03:13:02;;;;;;;2.72;2.28;;;6.60;99.90;;;;;;5019289;28;20136;-58
2022/04/04 03:15:29;;;;;;;3.40;2.65;;;6.60;99.90;;;;;;5018403;28;20137;-58
2022/04/04 03:17:56;;;;;;;3.10;2.60;;;6.60;99.90;;;;;;5019339;28;20529;-58
2022/04/04 03:20:25;;;;;;;3.58;2.72;;;6.60;99.90;;;;;;5018510;28;20224;-58
2022/04/04 03:22:53;;;;;;;3.90;2.85;;;6.60;99.90;;;;;;5021168;28;20076;-58
2022/04/04 03:25:20;;;;;;;4.93;2.38;;;6.60;99.90;;;;;;5021052;28;20122;-57
2022/04/04 03:27:48;;;;;;;2.97;2.28;;;6.60;99.90;;;;;;5021134;28;20132;-57
2022/04/04 03:30:18;;;;;;;4.82;2.75;;;6.70;99.90;;;;;;5021805;28;20083;-58
2022/04/04 03:32:45;;;;;;;3.15;2.20;;;6.60;99.90;;;;;;5021381;28;20072;-58
2022/04/04 03:35:15;;;;;;;4.40;2.95;;;6.70;99.90;;;;;;5021727;28;20152;-58
2022/04/04 03:37:44;;;;;;;3.40;2.45;;;6.70;99.90;;;;;;5016911;28;20211;-58
2022/04/04 03:40:14;;;;;;;3.03;2.22;;;6.70;99.90;;;;;;5014817;28;20141;-57
2022/04/04 03:42:41;;;;;;;2.65;2.25;;;6.70;99.90;;;;;;5020297;28;20132;-58
2022/04/04 03:45:08;;;;;;;3.20;2.15;;;6.70;99.90;;;;;;5020947;28;20091;-57
2022/04/04 03:47:35;;;;;;;3.92;2.50;;;6.70;99.90;;;;;;5017712;28;20090;-57
2022/04/04 03:50:05;;;;;;;3.38;2.30;;;6.70;99.90;;;;;;5019157;28;20132;-55
2022/04/04 03:52:31;;;;;;;4.13;2.15;;;6.80;99.90;;;;;;5019583;28;20609;-57
2022/04/04 03:54:58;;;;;;;3.22;2.50;;;6.80;99.90;;;;;;5023319;28;20076;-58
2022/04/04 03:57:25;;;;;;;3.88;2.50;;;6.80;99.90;;;;;;5042654;28;20161;-57
2022/04/04 03:59:51;;;;;;;3.22;2.30;;;6.80;99.90;;;;;;5026389;28;20087;-61
2022/04/04 04:02:18;;;;;;;2.60;2.00;;;6.70;99.90;;;;;;5020354;28;20127;-57
2022/04/04 04:04:45;;;;;;;3.40;2.08;;;6.70;99.90;;;;;;5021891;28;20055;-59
2022/04/04 04:07:15;;;;;;;3.13;2.30;;;6.60;99.90;;;;;;5021341;28;20326;-58
2022/04/04 04:09:43;;;;;;;2.60;2.20;;;6.50;99.90;;;;;;5021329;28;20103;-58
2022/04/04 04:12:11;;;;;;;3.28;2.35;;;6.40;99.90;;;;;;5027594;28;20132;-58
2022/04/04 04:14:38;;;;;;;3.17;2.15;;;6.20;99.90;;;;;;5019114;28;20045;-57
2022/04/04 04:17:06;;;;;;;3.50;2.72;;;6.00;99.90;;;;;;5024178;28;20178;-57
2022/04/04 04:22:19;;;;;;;4.00;2.75;;;5.70;99.90;;;;;;5021125;28;20172;-58
2022/04/04 04:24:46;;;;;;;3.92;2.70;;;5.50;99.90;;;;;;5023434;28;20060;-57
2022/04/04 04:27:13;;;;;;;3.13;2.40;;;5.50;99.90;;;;;;5023619;28;20049;-58
2022/04/04 04:29:39;;;;;;;5.85;2.75;;;5.40;99.90;;;;;;5021696;28;20128;-57
2022/04/04 04:32:13;;;;;;;4.45;2.42;;;5.40;99.90;;;;;;5021581;28;20089;-55
2022/04/04 04:34:40;;;;;;;3.25;2.55;;;5.30;99.90;;;;;;5031266;28;20061;-55
2022/04/04 04:37:07;;;;;;;3.28;2.60;;;5.30;99.90;;;;;;5040733;28;20053;-58
2022/04/04 04:39:34;;;;;;;2.80;2.30;;;5.30;99.90;;;;;;5027036;28;20117;-58
2022/04/04 04:42:01;;;;;;;4.15;2.40;;;5.30;99.90;;;;;;5021527;28;20161;-57
2022/04/04 04:44:27;;;;;;;3.80;2.47;;;5.30;99.90;;;;;;5021981;28;20061;-58
2022/04/04 04:46:54;;;;;;;3.45;2.50;;;5.30;99.90;;;;;;5024969;28;20128;-58
2022/04/04 04:49:22;;;;;;;3.92;2.40;;;5.30;99.90;;;;;;5021593;28;20056;-58
2022/04/04 04:51:48;;;;;;;4.80;2.80;;;5.30;99.90;;;;;;5022148;28;20241;-58
2022/04/04 04:54:16;;;;;;;3.30;2.72;;;5.40;99.90;;;;;;5035897;28;20124;-57
2022/04/04 04:56:43;;;;;;;3.47;2.78;;;5.40;99.90;;;;;;5025445;28;20157;-58
2022/04/04 04:59:10;;;;;;;3.83;2.33;;;5.40;99.90;;;;;;5019165;28;20080;-57
2022/04/04 05:01:37;;;;;;;3.33;2.70;;;5.40;99.90;;;;;;5022813;28;20168;-58
2022/04/04 05:04:04;;;;;;;4.07;2.60;;;5.40;99.90;;;;;;5015627;28;20141;-58
2022/04/04 05:06:32;;;;;;;3.03;2.53;;;5.40;99.90;;;;;;5022495;28;20081;-57
2022/04/04 05:09:00;;;;;;;4.25;2.20;;;5.30;99.90;;;;;;5019289;28;20141;-57
2022/04/04 05:11:27;;;;;;;2.90;2.58;;;5.30;99.90;;;;;;5015959;28;20164;-59
2022/04/04 05:13:54;;;;;;;4.00;2.60;;;5.20;99.90;;;;;;5017262;28;20125;-58
2022/04/04 05:16:20;;;;;;;4.20;2.67;;;5.20;99.90;;;;;;5022627;28;20413;-55
2022/04/04 05:18:47;;;;;;;3.22;2.22;;;5.10;99.90;;;;;;5029310;28;20224;-57
2022/04/04 05:21:14;;;;;;;3.53;2.80;;;5.10;99.90;;;;;;5027586;28;20118;-58
2022/04/04 05:23:41;;;;;;;3.72;2.90;;;5.10;99.90;;;;;;5028163;28;20133;-58
2022/04/04 05:26:09;;;;;;;4.05;2.75;;;5.10;99.90;;;;;;5021752;28;20140;-58
2022/04/04 05:28:35;;;;;;;3.25;2.55;;;5.10;99.90;;;;;;5020102;28;20134;-57
2022/04/04 05:31:04;;;;;;;3.67;2.58;;;5.10;99.90;;;;;;5026825;28;20124;-58
2022/04/04 05:33:32;;;;;;;3.90;3.08;;;5.10;99.90;;;;;;5026411;28;20142;-58
2022/04/04 05:35:58;;;;;;;4.32;3.47;;;5.20;99.90;;;;;;5021508;28;20056;-59
2022/04/04 05:38:25;;;;;;;4.05;2.80;;;5.10;99.90;;;;;;5027435;28;20459;-58
2022/04/04 05:40:52;;;;;;;4.10;3.35;;;5.10;99.90;;;;;;5026520;28;20100;-58
2022/04/04 05:43:19;;;;;;;4.00;2.97;;;5.10;99.90;;;;;;5024068;28;20748;-58
2022/04/04 05:45:48;;;;;;;3.50;3.10;;;5.00;99.90;;;;;;5021714;28;20046;-58
2022/04/04 05:48:15;;;;;;;3.05;2.75;;;5.00;99.90;;;;;;5004807;28;20071;-54
2022/04/04 05:50:41;;;;;;;4.07;3.20;;;5.00;99.90;;;;;;5016053;28;20140;-58
2022/04/04 05:53:09;;;;;;;5.95;3.22;;;5.00;99.90;;;;;;5012706;28;20128;-59
2022/04/04 05:55:35;;;;;;;4.35;3.40;;;5.00;99.90;;;;;;5009644;28;20156;-59
2022/04/04 05:58:02;;;;;;;3.80;2.95;;;5.00;99.90;;;;;;5004094;28;20489;-58
2022/04/04 06:00:29;;;;;;;3.83;3.28;;;5.00;99.90;;;;;;5010530;28;20053;-57
2022/04/04 06:02:56;;;;;;;5.05;3.13;;;5.00;99.90;;;;;;5012317;28;20711;-59
2022/04/04 06:05:23;;;;;;;3.40;2.80;;;5.00;99.90;;;;;;5000145;28;20057;-60
2022/04/04 06:07:50;;;;;;;3.88;3.30;;;5.00;99.90;;;;;;5015602;28;21013;-60
2022/04/04 06:10:17;;;;;;;4.97;3.67;;;5.00;99.90;;;;;;5023337;28;20642;-59
2022/04/04 06:12:44;;;;;;;4.38;3.60;;;5.10;99.90;;;;;;5017803;28;20124;-60
2022/04/04 06:15:11;;;;;;;3.40;3.03;;;5.10;99.90;;;;;;5007442;28;20077;-61
2022/04/04 06:17:41;;;;;;;3.75;2.80;;;5.20;99.90;;;;;;5019555;28;20718;-60
2022/04/04 06:20:08;;;;;;;4.65;3.05;;;5.20;99.90;;;;;;5012123;28;20090;-60
2022/04/04 06:22:38;;;;;;;3.83;2.85;;;5.20;99.90;;;;;;5006767;28;20069;-60
2022/04/04 06:25:07;;;;;;;3.63;2.67;;;5.20;99.90;;;;;;5006344;28;20686;-59
2022/04/04 06:27:35;;;;;;;3.38;2.50;;;5.30;99.90;;;;;;5004871;28;20050;-59
2022/04/04 06:30:03;;;;;;;4.10;3.40;;;5.30;99.90;;;;;;5005475;28;20045;-60
2022/04/04 06:32:30;;;;;;;3.28;2.80;;;5.30;99.90;;;;;;5009560;28;20100;-59
2022/04/04 06:34:57;;;;;;;3.38;2.67;;;5.30;99.90;;;;;;5016384;28;20077;-59
2022/04/04 06:37:24;;;;;;;3.90;3.08;;;5.40;99.90;;;;;;4997985;28;20152;-59
2022/04/04 06:39:51;;;;;;;4.13;3.10;;;5.30;99.90;;;;;;5002102;28;20184;-59
2022/04/04 06:42:19;;;;;;;3.85;2.78;;;5.40;99.90;;;;;;5014359;28;20231;-60
2022/04/04 06:44:46;;;;;;;3.42;3.03;;;5.40;99.90;;;;;;5010423;28;20468;-63
2022/04/04 06:47:13;;;;;;;3.13;2.50;;;5.50;99.90;;;;;;5000718;28;20468;-59
2022/04/04 06:49:40;;;;;;;5.00;2.88;;;5.50;99.90;;;;;;4999046;28;20161;-59
2022/04/04 06:52:07;;;;;;;3.38;2.50;;;5.50;99.90;;;;;;5013622;28;20163;-59
2022/04/04 06:54:34;;;;;;;3.72;2.55;;;5.60;99.90;;;;;;5016431;28;20053;-58
2022/04/04 06:57:01;;;;;;;3.60;2.95;;;5.60;99.90;;;;;;5007505;28;20096;-58
2022/04/04 06:59:29;;;;;;;4.93;2.95;;;5.60;99.90;;;;;;5016680;28;20077;-58
2022/04/04 07:01:56;;;;;;;4.00;3.08;;;5.70;99.90;;;;;;5003261;28;20120;-59
2022/04/04 07:04:23;;;;;;;2.92;2.33;;;5.70;99.90;;;;;;5028605;28;20055;-60
2022/04/04 07:06:50;;;;;;;3.10;2.60;;;5.70;99.90;;;;;;5005932;28;20053;-59
2022/04/04 07:09:16;;;;;;;3.72;2.63;;;5.80;99.90;;;;;;5008192;28;20141;-59
2022/04/04 07:11:43;;;;;;;4.32;2.10;;;5.80;99.90;;;;;;5006526;28;20051;-58
2022/04/04 07:14:10;;;;;;;5.47;2.80;;;5.80;99.90;;;;;;5026835;28;20054;-59
2022/04/04 07:16:37;;;;;;;3.25;2.30;;;5.80;99.90;;;;;;4993395;28;20049;-59
2022/04/04 07:19:05;;;;;;;2.72;2.22;;;5.90;99.90;;;;;;5017044;28;20053;-59
2022/04/04 07:21:31;;;;;;;3.90;2.25;;;5.90;99.90;;;;;;5004703;28;20429;-59
2022/04/04 07:23:58;;;;;;;2.53;1.92;;;5.90;99.90;;;;;;5011207;28;20054;-59
2022/04/04 07:26:26;;;;;;;3.88;2.30;;;6.00;99.90;;;;;;5018630;28;20061;-63
2022/04/04 07:28:53;;;;;;;2.40;2.05;;;6.00;99.90;;;;;;5017331;28;20046;-59
2022/04/04 07:31:20;;;;;;;3.00;2.00;;;6.00;99.90;;;;;;5003707;28;20132;-59
2022/04/04 07:33:46;;;;;;;3.35;2.30;;;6.10;99.90;;;;;;5002542;28;20548;-59
2022/04/04 07:36:13;;;;;;;3.20;2.08;;;6.10;99.90;;;;;;5006395;28;20100;-59
2022/04/04 07:38:40;;;;;;;2.42;1.95;;;6.10;99.90;;;;;;5013279;28;20408;-59
2022/04/04 07:41:07;;;;;;;3.38;2.00;;;6.10;99.90;;;;;;5007564;28;20532;-59
2022/04/04 07:43:34;;;;;;;3.03;2.00;;;6.20;99.90;;;;;;5014218;28;20053;-59
2022/04/04 07:46:01;;;;;;;2.40;1.88;;;6.20;99.90;;;;;;5012498;28;20124;-60
2022/04/04 07:48:28;;;;;;;2.78;1.67;;;6.20;99.90;;;;;;5006880;28;20053;-60
2022/04/04 07:50:55;;;;;;;3.53;1.80;;;6.20;99.90;;;;;;4998008;28;20135;-60
2022/04/04 07:53:22;;;;;;;3.38;1.95;;;6.30;99.90;;;;;;5003826;28;20077;-59
2022/04/04 07:55:49;;;;;;;3.28;1.65;;;6.30;99.90;;;;;;4998301;28;20100;-60
2022/04/04 07:58:17;;;;;;;2.90;1.83;;;6.30;99.90;;;;;;4996571;28;20077;-59
2022/04/04 08:00:44;;;;;;;3.08;2.20;;;6.40;99.90;;;;;;4996977;28;20050;-60
2022/04/04 08:03:11;;;;;;;3.22;1.88;;;6.40;99.90;;;;;;5010458;28;20086;-60
2022/04/04 08:05:38;;;;;;;3.10;2.15;;;6.50;99.90;;;;;;5000469;28;20050;-59
2022/04/04 08:08:05;;;;;;;2.20;1.70;;;6.50;99.90;;;;;;5012091;28;20661;-59
2022/04/04 08:10:33;;;;;;;2.22;1.65;;;6.60;99.90;;;;;;5015474;28;20148;-60
2022/04/04 08:13:00;;;;;;;2.25;1.50;;;6.60;99.90;;;;;;5009336;28;20132;-59
2022/04/04 08:15:27;;;;;;;2.60;1.70;;;6.70;99.90;;;;;;4997425;28;20066;-59
2022/04/04 08:17:55;;;;;;;2.97;1.70;;;6.70;99.90;;;;;;5001116;28;20448;-61
2022/04/04 08:20:22;;;;;;;2.40;1.52;;;6.70;99.90;;;;;;5004966;28;20049;-59
2022/04/04 08:22:49;;;;;;;2.13;1.50;;;6.70;99.90;;;;;;5009369;28;20348;-59
2022/04/04 08:25:17;;;;;;;1.67;1.20;;;6.70;99.90;;;;;;5009560;28;20049;-59
2022/04/04 08:27:44;;;;;;;1.75;1.17;;;6.80;99.90;;;;;;5011119;28;20685;-59
2022/04/04 08:30:12;;;;;;;2.05;1.55;;;6.80;99.90;;;;;;5001328;28;20192;-58
2022/04/04 08:32:39;;;;;;;2.00;1.55;;;6.80;99.90;;;;;;5007284;28;20045;-58
2022/04/04 08:35:07;;;;;;;1.90;1.30;;;6.80;99.90;;;;;;5019647;28;20138;-58
2022/04/04 08:37:35;;;;;;;2.40;1.33;;;6.80;99.90;;;;;;5004572;28;20057;-59
2022/04/04 08:40:05;;;;;;;2.00;1.42;;;6.90;99.90;;;;;;5019805;28;20140;-59
2022/04/04 08:42:32;;;;;;;2.35;1.50;;;6.90;99.90;;;;;;5014467;28;20610;-58
2022/04/04 08:45:00;;;;;;;2.35;2.05;;;7.00;99.90;;;;;;5010458;28;20045;-58
2022/04/04 08:47:29;;;;;;;1.85;1.30;;;7.00;99.90;;;;;;5013346;28;20126;-59
2022/04/04 08:49:56;;;;;;;1.67;1.02;;;7.00;99.90;;;;;;5010871;28;20045;-58
2022/04/04 08:52:23;;;;;;;1.80;1.20;;;7.00;99.90;;;;;;5012861;28;20157;-59
2022/04/04 08:54:50;;;;;;;2.05;1.10;;;7.10;99.90;;;;;;5032187;28;20128;-59
2022/04/04 08:57:17;;;;;;;2.05;1.02;;;7.20;99.90;;;;;;5021062;28;20139;-59
2022/04/04 08:59:44;;;;;;;1.60;1.20;;;7.20;99.90;;;;;;5007127;28;20125;-61
2022/04/04 09:02:12;;;;;;;2.35;1.30;;;7.20;99.90;;;;;;5010516;28;20624;-59
2022/04/04 09:04:39;;;;;;;3.22;1.30;;;7.20;99.90;;;;;;5011367;28;20053;-58
2022/04/04 09:07:07;;;;;;;1.40;1.00;;;7.20;99.90;;;;;;5006645;28;20050;-59
2022/04/04 09:09:44;;;;;;;1.55;1.00;;;7.20;99.90;;;;;;5015175;28;20142;-59
2022/04/04 09:12:12;;;;;;;2.03;0.90;;;7.20;99.90;;;;;;5014235;28;20548;-59
2022/04/04 09:14:46;;;;;;;1.00;0.90;;;7.20;99.90;;;;;;5015165;28;20725;-59
2022/04/04 09:17:13;;;;;;;1.42;0.88;;;7.30;99.90;;;;;;5007323;28;20081;-59
2022/04/04 09:19:40;;;;;;;1.55;0.85;;;7.40;99.90;;;;;;4998236;28;20229;-59
2022/04/04 09:22:09;;;;;;;1.75;1.00;;;7.50;99.90;;;;;;5008937;28;20127;-58
2022/04/04 09:25:05;;;;;;;1.42;0.93;;;7.60;99.90;;;;;;5016856;28;20377;-60
2022/04/04 09:27:34;;;;;;;1.13;0.65;;;7.60;99.90;;;;;;5000203;28;20662;-59
2022/04/04 09:30:08;;;;;;;1.98;1.00;;;7.70;99.90;;;;;;5015703;28;20061;-59
2022/04/04 09:32:38;;;;;;;1.00;0.70;;;7.70;99.90;;;;;;5008390;28;20053;-59
2022/04/04 09:35:11;;;;;;;0.90;0.73;;;7.70;99.90;;;;;;5000853;28;20140;-59
2022/04/04 09:37:39;;;;;;;0.90;0.70;;;7.70;99.90;;;;;;5017623;28;20053;-59
2022/04/04 09:40:18;;;;;;;0.90;0.80;;;7.70;99.90;;;;;;5002441;28;20137;-59
2022/04/04 09:42:51;;;;;;;0.70;0.63;;;7.80;99.90;;;;;;5013530;28;20076;-59
2022/04/04 09:45:24;;;;;;;1.70;1.00;;;7.80;99.90;;;;;;5022749;28;20129;-59
2022/04/04 09:47:52;;;;;;;1.02;0.80;;;7.80;99.90;;;;;;5022610;28;20302;-58
2022/04/04 09:50:37;;;;;;;1.90;0.85;;;7.80;99.90;;;;;;5022154;28;20088;-59
2022/04/04 09:53:13;;;;;;;0.95;0.75;;;7.80;99.90;;;;;;5020582;28;20064;-59
2022/04/04 09:55:43;;;;;;;0.95;0.85;;;7.90;99.90;;;;;;5020497;28;20156;-59
2022/04/04 09:58:12;;;;;;;1.08;0.85;;;7.90;99.90;;;;;;5021218;28;20137;-59
2022/04/04 10:00:39;;;;;;;1.48;0.70;;;7.90;99.90;;;;;;5021888;28;20049;-59
2022/04/04 10:03:07;;;;;;;1.23;0.75;;;7.90;99.90;;;;;;5021395;28;20463;-59
2022/04/04 10:05:35;;;;;;;1.67;0.73;;;7.90;99.90;;;;;;5021853;28;20107;-59
2022/04/04 10:08:02;;;;;;;0.75;0.57;;;7.90;99.90;;;;;;5021007;28;20085;-59
2022/04/04 10:10:30;;;;;;;1.10;1.00;;;8.00;99.90;;;;;;5020755;28;20580;-59
2022/04/04 10:12:57;;;;;;;2.03;1.30;;;8.10;99.90;;;;;;5021468;28;20426;-59
2022/04/04 10:15:30;;;;;;;1.00;0.90;;;8.10;99.90;;;;;;5020638;28;20401;-59
2022/04/04 10:17:58;;;;;;;1.30;1.05;;;8.10;99.90;;;;;;5021447;28;20092;-59
2022/04/04 10:20:25;;;;;;;1.60;1.10;;;8.20;99.90;;;;;;5021301;28;20046;-59
2022/04/04 10:22:53;;;;;;;1.55;1.08;;;8.30;99.90;;;;;;5022009;28;20092;-59
2022/04/04 10:25:24;;;;;;;1.20;0.82;;;8.40;99.90;;;;;;5021776;28;20089;-58
2022/04/04 10:27:52;;;;;;;1.17;0.90;;;8.50;99.90;;;;;;5021109;28;20096;-59
2022/04/04 10:30:40;;;;;;;1.15;0.75;;;8.60;99.90;;;;;;5020507;28;20128;-58
2022/04/04 10:33:23;;;;;;;1.20;1.00;;;8.70;99.90;;;;;;5019585;28;20091;-59
2022/04/04 10:36:20;;;;;;;1.75;0.95;;;8.80;99.90;;;;;;5021641;28;20103;-59
2022/04/04 10:38:49;;;;;;;1.23;0.82;;;8.80;99.90;;;;;;5020328;28;20131;-59
2022/04/04 10:41:21;;;;;;;1.27;0.82;;;8.80;99.90;;;;;;5021668;28;20119;-59
2022/04/04 10:43:52;;;;;;;1.67;1.15;;;9.00;99.90;;;;;;5020643;28;20571;-58
2022/04/04 10:46:20;;;;;;;1.73;1.05;;;9.00;99.90;;;;;;5021966;28;20220;-58
2022/04/04 10:49:02;;;;;;;1.88;1.50;;;9.10;99.90;;;;;;5021572;28;20095;-59
2022/04/04 10:51:34;;;;;;;1.75;1.27;;;9.30;99.90;;;;;;5021301;28;20113;-58
2022/04/04 10:54:01;;;;;;;2.03;0.90;;;9.50;99.90;;;;;;5021653;28;20046;-59
2022/04/04 10:56:33;;;;;;;1.85;0.90;;;9.60;99.90;;;;;;5020965;28;20526;-58
2022/04/04 10:59:15;;;;;;;1.63;1.30;;;9.90;99.90;;;;;;5019685;28;20056;-58
2022/04/04 11:01:43;;;;;;;1.27;1.05;;;10.00;99.90;;;;;;5020324;28;20049;-58
2022/04/04 11:07:38;;;;;;;2.00;1.02;;;10.10;99.90;;;;;;5021615;28;20053;-59
2022/04/04 11:07:39;;;;;;;1.75;1.00;;;10.10;99.90;;;;;;5011574;28;20045;-59
2022/04/04 11:10:06;;;;;;;1.42;0.80;;;10.10;99.90;;;;;;5020224;28;20590;-58
2022/04/04 11:13:07;;;;;;;1.52;1.08;;;10.30;99.90;;;;;;5020825;28;20063;-58
2022/04/04 11:15:41;;;;;;;1.50;0.90;;;10.40;99.90;;;;;;5020910;28;20052;-58
2022/04/04 11:18:09;;;;;;;1.00;0.90;;;10.40;99.90;;;;;;5003703;28;20128;-59
2022/04/04 11:20:36;;;;;;;1.38;1.20;;;10.50;99.90;;;;;;5021118;28;20405;-59
2022/04/04 11:23:08;;;;;;;2.28;1.38;;;10.60;99.90;;;;;;5020362;28;20420;-59
2022/04/04 11:25:37;;;;;;;1.27;0.90;;;10.60;99.90;;;;;;5021142;28;20547;-58
2022/04/04 11:28:04;;;;;;;3.38;1.33;;;10.70;99.90;;;;;;5020432;28;20092;-59
2022/04/04 11:30:31;;;;;;;1.95;1.55;;;10.70;99.90;;;;;;5020770;28;20132;-58
2022/04/04 11:32:59;;;;;;;2.30;1.30;;;10.60;99.90;;;;;;5020457;28;20436;-59
2022/04/04 11:35:30;;;;;;;1.50;1.00;;;10.50;99.90;;;;;;5020959;28;20528;-59
2022/04/04 11:38:02;;;;;;;1.75;1.33;;;10.40;99.90;;;;;;5019780;28;20485;-59
2022/04/04 11:40:34;;;;;;;3.15;1.40;;;10.50;99.90;;;;;;5021219;28;20550;-58
2022/04/04 11:43:04;;;;;;;2.63;1.10;;;10.50;99.90;;;;;;5020995;28;20446;-59
2022/04/04 11:45:39;;;;;;;1.42;1.17;;;10.60;99.90;;;;;;5020969;28;20095;-59
2022/04/04 11:48:14;;;;;;;2.53;1.38;;;10.60;99.90;;;;;;5020735;28;20057;-57
2022/04/04 11:50:42;;;;;;;2.22;1.20;;;10.60;99.90;;;;;;5020467;28;20385;-59
2022/04/04 11:53:10;;;;;;;1.30;1.10;;;10.60;99.90;;;;;;5020548;28;20156;-59
2022/04/04 11:55:39;;;;;;;2.63;1.40;;;10.50;99.90;;;;;;5019301;28;20077;-59
2022/04/04 11:58:12;;;;;;;1.27;1.17;;;10.50;99.90;;;;;;5019522;28;20129;-59
2022/04/04 12:00:43;;;;;;;1.65;1.30;;;10.50;99.90;;;;;;5020458;28;20053;-59
2022/04/04 12:03:11;;;;;;;1.60;1.35;;;10.50;99.90;;;;;;5019828;28;20068;-59
2022/04/04 12:05:39;;;;;;;2.08;1.80;;;10.50;99.90;;;;;;5020605;28;20048;-59
2022/04/04 12:08:10;;;;;;;1.90;1.40;;;10.50;99.90;;;;;;5020919;28;20053;-58
2022/04/04 12:10:37;;;;;;;1.95;1.52;;;10.50;99.90;;;;;;5019476;28;20136;-59
2022/04/04 12:13:08;;;;;;;1.60;1.50;;;10.60;99.90;;;;;;5022335;28;20057;-59
2022/04/04 12:15:40;;;;;;;1.60;1.30;;;10.80;99.90;;;;;;5023231;28;20084;-59
2022/04/04 12:18:07;;;;;;;1.50;1.40;;;10.90;99.90;;;;;;5023080;28;20085;-60
2022/04/04 12:20:44;;;;;;;2.15;1.90;;;11.00;99.90;;;;;;5024308;28;20049;-58
2022/04/04 12:26:09;;;;;;;1.60;1.33;;;11.00;99.90;;;;;;5022844;28;20131;-59
2022/04/04 12:28:48;;;;;;;1.80;1.55;;;11.10;99.90;;;;;;5024461;28;20140;-59
2022/04/04 12:31:17;;;;;;;2.00;1.50;;;11.10;99.90;;;;;;5024288;28;20089;-59
2022/04/04 12:33:45;;;;;;;2.72;1.50;;;11.20;99.90;;;;;;5023590;28;20493;-59
2022/04/04 12:36:12;;;;;;;0.98;0.80;;;11.20;99.90;;;;;;5022146;28;20085;-59
2022/04/04 12:38:42;;;;;;;2.13;1.65;;;11.30;99.90;;;;;;5024145;28;20128;-58
2022/04/04 12:41:13;;;;;;;1.30;1.20;;;11.30;99.90;;;;;;5023925;28;20123;-59
2022/04/04 12:43:42;;;;;;;2.90;1.30;;;11.40;99.90;;;;;;5023008;28;20068;-59
2022/04/04 12:46:30;;;;;;;2.13;1.70;;;11.50;99.90;;;;;;5023649;28;20120;-58
2022/04/04 12:49:20;;;;;;;1.92;1.52;;;11.50;99.90;;;;;;5021712;28;20053;-59
2022/04/04 12:52:03;;;;;;;1.70;1.23;;;11.60;99.90;;;;;;5023505;28;20061;-59
2022/04/04 12:54:34;;;;;;;1.70;1.33;;;11.80;99.90;;;;;;5022534;28;20133;-59
2022/04/04 12:57:03;;;;;;;1.60;1.40;;;11.90;99.90;;;;;;5023529;28;20096;-59
2022/04/04 12:59:30;;;;;;;1.77;1.40;;;12.10;99.90;;;;;;5023918;28;20410;-59
2022/04/04 13:02:09;;;;;;;1.90;1.25;;;12.10;99.90;;;;;;5023144;28;20088;-59
2022/04/04 13:04:37;;;;;;;2.08;1.70;;;12.10;99.90;;;;;;5021645;28;20596;-59
2022/04/04 13:07:20;;;;;;;2.42;1.77;;;12.10;99.90;;;;;;5023698;28;20068;-59
2022/04/04 13:09:54;;;;;;;2.58;1.65;;;12.20;99.90;;;;;;5022623;28;20089;-59
2022/04/04 13:12:30;;;;;;;2.20;1.52;;;12.20;99.90;;;;;;5022900;28;20577;-59